createdAt,value
2022-12-06T00:00:52.766Z,6.55
2022-12-06T00:03:20.336Z,7.00
2022-12-06T00:05:47.901Z,7.00
2022-12-06T00:08:15.705Z,6.53
2022-12-06T00:10:43.251Z,6.85
2022-12-06T00:13:10.769Z,6.47
2022-12-06T00:15:39.641Z,6.65
2022-12-06T00:18:07.229Z,6.40
2022-12-06T00:20:34.929Z,6.25
2022-12-06T00:23:02.504Z,6.35
2022-12-06T00:25:30.186Z,6.68
2022-12-06T00:27:57.700Z,6.43
2022-12-06T00:30:25.232Z,6.28
2022-12-06T00:32:54.110Z,6.25
2022-12-06T00:35:21.637Z,5.82
2022-12-06T00:37:49.158Z,6.18
2022-12-06T00:40:16.761Z,6.38
2022-12-06T00:42:44.568Z,5.93
2022-12-06T00:45:12.359Z,6.15
2022-12-06T00:47:39.898Z,6.10
2022-12-06T00:50:10.223Z,6.28
2022-12-06T00:52:37.783Z,5.80
2022-12-06T00:55:05.851Z,6.20
2022-12-06T00:57:33.389Z,6.10
2022-12-06T01:00:01.124Z,6.13
2022-12-06T01:02:28.844Z,6.10
2022-12-06T01:04:56.403Z,5.78
2022-12-06T01:07:25.252Z,5.88
2022-12-06T01:09:52.827Z,6.40
2022-12-06T01:12:20.266Z,6.20
2022-12-06T01:14:47.726Z,5.50
2022-12-06T01:17:15.158Z,5.93
2022-12-06T01:19:42.870Z,5.68
2022-12-06T01:22:10.297Z,5.78
2022-12-06T01:24:39.345Z,5.82
2022-12-06T01:27:06.785Z,6.05
2022-12-06T01:29:34.250Z,5.53
2022-12-06T01:32:01.700Z,5.22
2022-12-06T01:34:29.163Z,6.35
2022-12-06T01:36:56.607Z,5.65
2022-12-06T01:39:24.168Z,6.05
2022-12-06T01:41:52.919Z,6.05
2022-12-06T01:44:39.668Z,5.65
2022-12-06T01:47:07.162Z,5.93
2022-12-06T01:49:35.376Z,6.10
2022-12-06T01:52:04.439Z,5.70
2022-12-06T01:54:32.574Z,6.10
2022-12-06T01:57:01.347Z,5.55
2022-12-06T01:59:28.849Z,5.68
2022-12-06T02:01:56.548Z,5.40
2022-12-06T02:04:24.060Z,5.53
2022-12-06T02:06:51.854Z,4.93
2022-12-06T02:09:19.584Z,5.50
2022-12-06T02:11:47.652Z,5.20
2022-12-06T02:14:17.632Z,5.57
2022-12-06T02:16:58.700Z,5.10
2022-12-06T02:19:48.959Z,5.50
2022-12-06T02:24:56.770Z,4.97
2022-12-06T02:27:47.602Z,5.10
2022-12-06T02:30:18.625Z,5.60
2022-12-06T02:32:54.512Z,5.32
2022-12-06T02:35:26.308Z,5.00
2022-12-06T02:37:54.908Z,5.07
2022-12-06T02:40:24.403Z,5.70
2022-12-06T02:42:54.375Z,5.55
2022-12-06T02:45:24.215Z,5.20
2022-12-06T02:47:52.981Z,4.97
2022-12-06T02:50:23.376Z,5.43
2022-12-06T02:52:51.503Z,5.30
2022-12-06T02:55:19.332Z,4.90
2022-12-06T02:57:47.722Z,5.35
2022-12-06T03:00:33.980Z,5.43
2022-12-06T03:03:19.310Z,5.30
2022-12-06T03:05:52.921Z,5.18
2022-12-06T03:08:24.167Z,4.75
2022-12-06T03:10:53.640Z,5.20
2022-12-06T03:13:23.995Z,3.40
2022-12-06T03:15:54.843Z,5.22
2022-12-06T03:18:25.153Z,4.65
2022-12-06T03:20:53.299Z,4.65
2022-12-06T03:23:22.814Z,4.75
2022-12-06T03:25:50.268Z,5.63
2022-12-06T03:28:18.054Z,4.70
2022-12-06T03:30:47.257Z,4.82
2022-12-06T03:33:14.831Z,5.00
2022-12-06T03:35:43.643Z,5.18
2022-12-06T03:38:12.011Z,4.60
2022-12-06T03:40:40.285Z,5.45
2022-12-06T03:43:07.714Z,4.80
2022-12-06T03:45:38.111Z,4.38
2022-12-06T03:48:08.048Z,4.40
2022-12-06T03:50:37.011Z,5.18
2022-12-06T03:53:05.912Z,5.10
2022-12-06T03:55:33.385Z,4.90
2022-12-06T03:58:00.843Z,5.30
2022-12-06T04:00:28.299Z,4.78
2022-12-06T04:02:55.762Z,4.65
2022-12-06T04:05:23.193Z,4.50
2022-12-06T04:07:50.710Z,5.10
2022-12-06T04:10:19.584Z,4.97
2022-12-06T04:13:01.295Z,5.05
2022-12-06T04:15:29.181Z,4.57
2022-12-06T04:18:10.719Z,4.70
2022-12-06T04:21:00.887Z,4.90
2022-12-06T04:25:57.157Z,4.70
2022-12-06T04:28:42.394Z,4.50
2022-12-06T04:31:27.776Z,4.75
2022-12-06T04:34:13.269Z,4.55
2022-12-06T04:36:58.564Z,4.55
2022-12-06T04:39:26.263Z,4.30
2022-12-06T04:42:13.015Z,4.63
2022-12-06T04:44:40.484Z,4.93
2022-12-06T04:47:08.345Z,4.60
2022-12-06T04:49:35.921Z,5.20
2022-12-06T04:52:03.486Z,4.85
2022-12-06T04:54:31.163Z,4.97
2022-12-06T04:57:00.018Z,4.30
2022-12-06T04:59:28.404Z,4.90
2022-12-06T05:04:15.579Z,4.45
2022-12-06T05:06:43.060Z,4.95
2022-12-06T05:09:10.549Z,4.93
2022-12-06T05:11:37.993Z,4.95
2022-12-06T05:14:06.766Z,4.88
2022-12-06T05:16:34.348Z,5.05
2022-12-06T05:19:01.880Z,5.43
2022-12-06T05:21:29.499Z,5.10
2022-12-06T05:23:57.059Z,4.90
2022-12-06T05:26:25.744Z,5.30
2022-12-06T05:28:53.710Z,5.25
2022-12-06T05:31:22.871Z,5.20
2022-12-06T05:33:50.479Z,5.20
2022-12-06T05:36:19.880Z,5.32
2022-12-06T05:38:51.313Z,5.60
2022-12-06T05:41:19.341Z,4.95
2022-12-06T05:43:46.818Z,5.20
2022-12-06T05:46:14.402Z,5.55
2022-12-06T05:48:43.277Z,5.65
2022-12-06T05:51:10.773Z,5.43
2022-12-06T05:53:38.232Z,4.70
2022-12-06T05:56:07.000Z,5.32
2022-12-06T05:58:34.454Z,6.07
2022-12-06T06:01:01.907Z,5.28
2022-12-06T06:03:29.500Z,5.53
2022-12-06T06:06:00.111Z,5.07
2022-12-06T06:08:27.691Z,5.25
2022-12-06T06:10:55.159Z,5.70
2022-12-06T06:13:22.592Z,6.35
2022-12-06T06:15:50.069Z,6.20
2022-12-06T06:18:17.615Z,6.60
2022-12-06T06:20:49.179Z,6.20
2022-12-06T06:23:18.021Z,6.40
2022-12-06T06:25:45.552Z,6.50
2022-12-06T06:28:13.136Z,5.97
2022-12-06T06:30:40.597Z,6.53
2022-12-06T06:33:08.067Z,6.22
2022-12-06T06:35:35.586Z,6.15
2022-12-06T06:38:03.098Z,6.30
2022-12-06T06:40:31.889Z,6.22
2022-12-06T06:43:17.759Z,6.30
2022-12-06T06:45:46.567Z,5.82
2022-12-06T06:48:14.160Z,6.10
2022-12-06T06:50:41.614Z,7.50
2022-12-06T06:53:09.129Z,6.43
2022-12-06T06:55:37.886Z,7.20
2022-12-06T06:58:05.464Z,7.32
2022-12-06T07:00:33.140Z,7.15
2022-12-06T07:03:00.652Z,6.40
2022-12-06T07:05:28.152Z,6.72
2022-12-06T07:07:57.575Z,7.85
2022-12-06T07:10:27.195Z,6.28
2022-12-06T07:12:55.957Z,5.57
2022-12-06T07:15:23.397Z,6.32
2022-12-06T07:17:51.513Z,7.63
2022-12-06T07:20:19.055Z,6.28
2022-12-06T07:22:46.550Z,6.32
2022-12-06T07:25:13.988Z,6.95
2022-12-06T07:27:41.438Z,5.68
2022-12-06T07:30:15.812Z,5.30
2022-12-06T07:32:44.551Z,5.35
2022-12-06T07:35:12.107Z,6.63
2022-12-06T07:37:39.795Z,7.03
2022-12-06T07:40:08.972Z,5.03
2022-12-06T07:42:53.974Z,6.22
2022-12-06T07:45:22.751Z,6.22
2022-12-06T07:47:50.210Z,6.13
2022-12-06T07:50:18.779Z,5.80
2022-12-06T07:52:46.451Z,7.43
2022-12-06T07:55:14.019Z,8.63
2022-12-06T07:57:43.642Z,6.70
2022-12-06T08:00:12.950Z,6.28
2022-12-06T08:02:41.723Z,6.63
2022-12-06T08:05:09.823Z,8.13
2022-12-06T08:07:37.317Z,7.10
2022-12-06T08:10:05.157Z,7.57
2022-12-06T08:12:32.817Z,6.65
2022-12-06T08:15:00.496Z,6.13
2022-12-06T08:17:28.009Z,7.95
2022-12-06T08:19:56.876Z,6.20
2022-12-06T08:22:24.362Z,5.88
2022-12-06T08:24:51.844Z,5.32
2022-12-06T08:27:19.295Z,4.65
2022-12-06T08:29:46.733Z,7.65
2022-12-06T08:32:14.183Z,5.15
2022-12-06T08:34:42.758Z,5.22
2022-12-06T08:37:11.659Z,4.28
2022-12-06T08:39:39.114Z,6.75
2022-12-06T08:42:07.918Z,4.63
2022-12-06T08:44:36.316Z,4.03
2022-12-06T08:47:03.791Z,5.68
2022-12-06T08:49:31.370Z,5.22
2022-12-06T08:51:59.005Z,6.13
2022-12-06T08:54:27.764Z,7.05
2022-12-06T08:56:55.401Z,7.25
2022-12-06T08:59:23.067Z,11.82
2022-12-06T09:01:50.551Z,21.10
2022-12-06T09:04:18.047Z,34.35
2022-12-06T09:06:45.663Z,38.00
2022-12-06T09:09:13.761Z,32.97
2022-12-06T09:11:42.554Z,23.00
2022-12-06T09:14:11.056Z,26.40
2022-12-06T09:16:38.932Z,35.03
2022-12-06T09:19:06.377Z,27.95
2022-12-06T09:21:34.410Z,30.33
2022-12-06T09:24:01.872Z,33.65
2022-12-06T09:26:29.615Z,25.48
2022-12-06T09:28:58.740Z,27.60
2022-12-06T09:31:26.373Z,26.40
2022-12-06T09:33:53.883Z,59.65
2022-12-06T09:36:23.221Z,135.02
2022-12-06T09:38:52.795Z,84.47
2022-12-06T09:41:29.354Z,56.30
2022-12-06T09:44:05.260Z,60.38
2022-12-06T09:46:43.422Z,43.47
2022-12-06T09:49:29.524Z,39.13
2022-12-06T09:52:17.041Z,36.92
2022-12-06T09:54:57.383Z,32.20
2022-12-06T09:57:30.825Z,29.80
2022-12-06T10:00:05.239Z,23.98
2022-12-06T10:02:52.223Z,25.33
2022-12-06T10:05:31.353Z,16.70
2022-12-06T10:08:04.017Z,18.55
2022-12-06T10:10:35.523Z,17.50
2022-12-06T10:13:05.212Z,20.75
2022-12-06T10:15:41.330Z,16.90
2022-12-06T10:18:16.412Z,16.20
2022-12-06T10:20:46.264Z,13.70
2022-12-06T10:23:20.078Z,11.88
2022-12-06T10:25:50.234Z,13.95
2022-12-06T10:30:51.328Z,10.60
2022-12-06T10:33:22.248Z,10.82
2022-12-06T10:35:52.104Z,11.73
2022-12-06T10:38:26.367Z,9.45
2022-12-06T10:41:01.156Z,9.95
2022-12-06T10:43:30.153Z,12.80
2022-12-06T10:46:22.667Z,9.52
2022-12-06T10:48:55.711Z,12.75
2022-12-06T10:51:25.016Z,7.15
2022-12-06T10:53:53.988Z,15.83
2022-12-06T10:56:22.356Z,8.80
2022-12-06T10:58:52.058Z,9.52
2022-12-06T11:01:22.255Z,11.32
2022-12-06T11:06:21.614Z,7.10
2022-12-06T11:08:50.778Z,9.75
2022-12-06T11:11:21.240Z,9.82
2022-12-06T11:13:49.805Z,9.25
2022-12-06T11:16:18.904Z,9.43
2022-12-06T11:18:47.853Z,9.43
2022-12-06T11:21:21.749Z,8.80
2022-12-06T11:23:53.146Z,10.07
2022-12-06T11:26:24.246Z,9.20
2022-12-06T11:28:59.973Z,7.25
2022-12-06T11:31:28.895Z,9.20
2022-12-06T11:33:57.683Z,8.77
2022-12-06T11:36:25.257Z,6.60
2022-12-06T11:38:52.742Z,7.30
2022-12-06T11:41:22.289Z,7.13
2022-12-06T11:43:49.842Z,7.60
2022-12-06T11:46:17.369Z,6.53
2022-12-06T11:48:44.879Z,6.63
2022-12-06T11:51:17.472Z,7.38
2022-12-06T11:53:53.481Z,7.95
2022-12-06T11:56:23.317Z,8.05
2022-12-06T11:58:58.980Z,55.85
2022-12-06T12:01:38.081Z,93.55
2022-12-06T12:04:39.285Z,87.53
2022-12-06T12:07:13.324Z,92.47
2022-12-06T12:09:47.693Z,93.72
2022-12-06T12:12:16.489Z,78.72
2022-12-06T12:14:49.582Z,89.13
2022-12-06T12:17:20.420Z,79.97
2022-12-06T12:19:51.045Z,83.03
2022-12-06T12:22:25.067Z,81.10
2022-12-06T12:27:46.033Z,79.72
2022-12-06T12:30:28.091Z,81.10
2022-12-06T12:33:18.987Z,69.65
2022-12-06T12:35:47.403Z,70.75
2022-12-06T12:38:19.252Z,71.05
2022-12-06T12:40:47.609Z,72.25
2022-12-06T12:43:17.542Z,75.18
2022-12-06T12:46:03.566Z,72.32
2022-12-06T12:48:31.147Z,65.63
2022-12-06T12:51:00.126Z,66.10
2022-12-06T12:53:30.760Z,64.10
2022-12-06T12:56:07.132Z,67.50
2022-12-06T12:58:36.255Z,62.65
2022-12-06T13:01:06.923Z,67.88
2022-12-06T13:03:50.554Z,64.10
2022-12-06T13:06:22.610Z,60.63
2022-12-06T13:08:51.398Z,57.25
2022-12-06T13:11:18.863Z,51.55
2022-12-06T13:13:48.271Z,50.45
2022-12-06T13:16:16.876Z,52.25
2022-12-06T13:18:46.078Z,50.40
2022-12-06T13:21:24.048Z,45.97
2022-12-06T13:23:54.405Z,45.55
2022-12-06T13:26:24.042Z,43.08
2022-12-06T13:28:52.289Z,46.92
2022-12-06T13:31:21.095Z,40.38
2022-12-06T13:33:50.337Z,38.83
2022-12-06T13:36:17.790Z,35.72
2022-12-06T13:38:45.297Z,37.65
2022-12-06T13:41:14.368Z,36.20
2022-12-06T13:43:51.490Z,34.10
2022-12-06T13:46:32.909Z,35.92
2022-12-06T13:49:01.945Z,43.28
2022-12-06T13:51:50.500Z,38.65
2022-12-06T13:54:36.076Z,39.45
2022-12-06T13:57:26.157Z,37.42
2022-12-06T13:59:53.708Z,37.28
2022-12-06T14:02:44.856Z,30.70
2022-12-06T14:08:20.987Z,37.13
2022-12-06T14:10:48.525Z,26.38
2022-12-06T14:13:21.501Z,24.15
2022-12-06T14:15:52.554Z,25.83
2022-12-06T14:18:21.482Z,23.17
2022-12-06T14:20:49.611Z,25.83
2022-12-06T14:23:24.248Z,22.05
2022-12-06T14:25:51.810Z,19.83
2022-12-06T14:28:20.657Z,21.83
2022-12-06T14:30:48.209Z,20.73
2022-12-06T14:33:19.590Z,20.27
2022-12-06T14:35:50.630Z,20.25
2022-12-06T14:38:22.737Z,23.58
2022-12-06T14:41:04.594Z,19.88
2022-12-06T14:43:33.907Z,16.50
2022-12-06T14:46:03.045Z,17.73
2022-12-06T14:48:52.848Z,15.80
2022-12-06T14:51:23.224Z,21.05
2022-12-06T14:53:51.369Z,15.27
2022-12-06T14:56:23.232Z,14.15
2022-12-06T14:58:52.056Z,15.50
2022-12-06T15:01:22.557Z,14.45
2022-12-06T15:03:58.131Z,15.18
2022-12-06T15:06:26.504Z,12.20
2022-12-06T15:09:05.790Z,13.55
2022-12-06T15:11:51.310Z,15.33
2022-12-06T15:14:21.931Z,14.40
2022-12-06T15:16:57.741Z,12.20
2022-12-06T15:19:25.207Z,12.98
2022-12-06T15:21:52.806Z,10.25
2022-12-06T15:24:20.920Z,10.57
2022-12-06T15:26:48.427Z,10.95
2022-12-06T15:29:16.017Z,9.82
2022-12-06T15:31:49.258Z,10.55
2022-12-06T15:34:22.373Z,11.45
2022-12-06T15:36:55.927Z,10.73
2022-12-06T15:39:36.732Z,9.50
2022-12-06T15:42:04.243Z,10.52
2022-12-06T15:44:31.679Z,8.10
2022-12-06T15:47:00.455Z,8.93
2022-12-06T15:49:28.380Z,9.23
2022-12-06T15:51:55.847Z,8.45
2022-12-06T15:54:24.083Z,8.95
2022-12-06T15:56:51.812Z,7.57
2022-12-06T15:59:19.498Z,7.45
2022-12-06T16:01:48.505Z,6.72
2022-12-06T16:04:17.931Z,5.80
2022-12-06T16:06:45.628Z,6.35
2022-12-06T16:09:13.851Z,5.80
2022-12-06T16:11:41.364Z,8.20
2022-12-06T16:14:08.863Z,6.68
2022-12-06T16:16:42.907Z,5.55
2022-12-06T16:19:10.951Z,6.55
2022-12-06T16:21:51.545Z,4.70
2022-12-06T16:24:18.120Z,5.63
2022-12-06T16:26:45.956Z,4.90
2022-12-06T16:29:14.539Z,5.55
2022-12-06T16:31:42.176Z,5.13
2022-12-06T16:34:09.791Z,5.03
2022-12-06T16:36:53.298Z,4.97
2022-12-06T16:39:20.745Z,4.80
2022-12-06T16:41:48.391Z,6.20
2022-12-06T16:44:15.831Z,4.90
2022-12-06T16:46:44.352Z,4.47
2022-12-06T16:49:46.764Z,5.68
2022-12-06T16:52:03.827Z,5.35
2022-12-06T16:54:31.257Z,5.53
2022-12-06T16:56:58.687Z,4.95
2022-12-06T16:59:26.123Z,6.45
2022-12-06T17:01:54.433Z,4.95
2022-12-06T17:04:22.016Z,4.85
2022-12-06T17:06:49.671Z,6.40
2022-12-06T17:09:18.435Z,4.47
2022-12-06T17:12:06.165Z,4.72
2022-12-06T17:14:33.828Z,5.32
2022-12-06T17:17:03.797Z,6.32
2022-12-06T17:21:59.520Z,5.43
2022-12-06T17:24:28.646Z,4.45
2022-12-06T17:26:56.212Z,4.78
2022-12-06T17:29:24.177Z,5.10
2022-12-06T17:31:51.735Z,4.70
2022-12-06T17:34:19.826Z,4.72
2022-12-06T17:36:47.810Z,4.88
2022-12-06T17:39:16.148Z,4.88
2022-12-06T17:42:02.586Z,6.22
2022-12-06T17:44:30.203Z,6.22
2022-12-06T17:46:57.687Z,4.50
2022-12-06T17:49:26.030Z,4.57
2022-12-06T17:51:53.544Z,4.85
2022-12-06T17:54:21.373Z,4.65
2022-12-06T17:56:50.551Z,5.03
2022-12-06T17:59:18.686Z,4.97
2022-12-06T18:04:33.770Z,5.90
2022-12-06T18:07:01.239Z,4.63
2022-12-06T18:09:28.859Z,6.15
2022-12-06T18:11:57.657Z,5.97
2022-12-06T18:14:25.133Z,4.93
2022-12-06T18:16:52.624Z,5.00
2022-12-06T18:19:21.249Z,4.93
2022-12-06T18:21:49.514Z,4.80
2022-12-06T18:24:22.562Z,5.13
2022-12-06T18:26:51.267Z,4.82
2022-12-06T18:29:20.686Z,5.70
2022-12-06T18:31:48.260Z,4.53
2022-12-06T18:34:15.772Z,5.13
2022-12-06T18:36:43.275Z,6.18
2022-12-06T18:39:15.083Z,5.05
2022-12-06T18:41:43.366Z,4.68
2022-12-06T18:44:10.825Z,6.50
2022-12-06T18:46:41.100Z,5.38
2022-12-06T18:49:08.597Z,5.78
2022-12-06T18:51:38.340Z,5.13
2022-12-06T18:54:06.024Z,6.55
2022-12-06T18:56:34.038Z,5.60
2022-12-06T18:59:01.998Z,5.22
2022-12-06T19:01:30.963Z,5.30
2022-12-06T19:04:00.587Z,6.00
2022-12-06T19:06:29.206Z,5.38
2022-12-06T19:08:57.680Z,5.63
2022-12-06T19:11:25.171Z,5.35
2022-12-06T19:13:53.223Z,7.32
2022-12-06T19:16:22.950Z,5.80
2022-12-06T19:18:50.872Z,7.20
2022-12-06T19:21:19.712Z,5.55
2022-12-06T19:23:47.238Z,5.70
2022-12-06T19:26:14.679Z,5.70
2022-12-06T19:28:42.183Z,5.32
2022-12-06T19:31:11.327Z,5.90
2022-12-06T19:33:39.566Z,6.37
2022-12-06T19:36:08.037Z,6.35
2022-12-06T19:38:36.843Z,5.80
2022-12-06T19:41:04.629Z,6.10
2022-12-06T19:43:49.690Z,6.10
2022-12-06T19:46:17.971Z,6.32
2022-12-06T19:48:45.512Z,6.70
2022-12-06T19:51:13.015Z,6.78
2022-12-06T19:53:42.838Z,6.47
2022-12-06T19:56:11.669Z,6.60
2022-12-06T19:58:39.152Z,7.97
2022-12-06T20:01:10.249Z,7.53
2022-12-06T20:03:38.120Z,7.50
2022-12-06T20:06:06.814Z,7.65
2022-12-06T20:08:34.276Z,7.28
2022-12-06T20:11:07.224Z,6.90
2022-12-06T20:13:34.777Z,6.70
2022-12-06T20:16:02.791Z,7.35
2022-12-06T20:18:30.348Z,7.35
2022-12-06T20:20:57.820Z,7.80
2022-12-06T20:23:25.361Z,8.77
2022-12-06T20:25:52.818Z,7.85
2022-12-06T20:28:21.609Z,7.03
2022-12-06T20:30:49.172Z,7.55
2022-12-06T20:33:16.664Z,7.65
2022-12-06T20:35:44.139Z,7.72
2022-12-06T20:38:11.852Z,7.15
2022-12-06T20:40:39.313Z,7.90
2022-12-06T20:43:06.786Z,7.00
2022-12-06T20:45:36.226Z,7.65
2022-12-06T20:48:04.012Z,7.55
2022-12-06T20:50:31.517Z,7.63
2022-12-06T20:52:59.004Z,7.35
2022-12-06T20:55:26.485Z,7.93
2022-12-06T20:57:53.975Z,8.60
2022-12-06T21:00:22.324Z,8.43
2022-12-06T21:02:51.213Z,8.15
2022-12-06T21:05:19.100Z,7.68
2022-12-06T21:07:46.710Z,8.00
2022-12-06T21:10:14.232Z,8.45
2022-12-06T21:12:41.683Z,7.57
2022-12-06T21:15:09.694Z,7.60
2022-12-06T21:17:37.156Z,8.02
2022-12-06T21:20:07.524Z,9.60
2022-12-06T21:22:35.003Z,9.70
2022-12-06T21:25:02.499Z,8.45
2022-12-06T21:27:29.976Z,8.65
2022-12-06T21:29:57.480Z,11.55
2022-12-06T21:32:25.714Z,8.13
2022-12-06T21:34:53.165Z,8.82
2022-12-06T21:37:21.987Z,9.23
2022-12-06T21:39:49.459Z,8.10
2022-12-06T21:42:20.753Z,8.25
2022-12-06T21:44:48.213Z,8.30
2022-12-06T21:47:15.670Z,8.43
2022-12-06T21:49:43.106Z,9.07
2022-12-06T21:52:10.614Z,8.45
2022-12-06T21:54:39.426Z,8.82
2022-12-06T21:57:06.958Z,8.23
2022-12-06T21:59:34.495Z,8.68
2022-12-06T22:02:02.073Z,8.50
2022-12-06T22:04:29.630Z,8.05
2022-12-06T22:06:57.129Z,8.95
2022-12-06T22:09:24.591Z,9.23
2022-12-06T22:11:53.567Z,8.93
2022-12-06T22:14:21.081Z,9.05
2022-12-06T22:16:49.788Z,8.50
2022-12-06T22:19:17.432Z,8.98
2022-12-06T22:21:44.932Z,9.98
2022-12-06T22:24:12.456Z,9.60
2022-12-06T22:26:40.000Z,9.30
2022-12-06T22:29:08.810Z,10.27
2022-12-06T22:31:36.352Z,9.43
2022-12-06T22:34:03.835Z,9.00
2022-12-06T22:36:31.823Z,9.35
2022-12-06T22:39:00.266Z,9.55
2022-12-06T22:41:28.338Z,8.65
2022-12-06T22:43:56.681Z,9.10
2022-12-06T22:46:26.675Z,9.25
2022-12-06T22:48:54.362Z,9.18
2022-12-06T22:51:23.276Z,8.95
2022-12-06T22:53:53.184Z,8.27
2022-12-06T22:56:20.742Z,8.60
2022-12-06T22:58:48.200Z,8.63
2022-12-06T23:01:17.161Z,7.85
2022-12-06T23:03:46.241Z,7.80
2022-12-06T23:06:13.878Z,8.25
2022-12-06T23:08:41.432Z,8.27
2022-12-06T23:11:09.808Z,8.13
2022-12-06T23:13:37.316Z,8.05
2022-12-06T23:16:06.921Z,8.18
2022-12-06T23:18:34.794Z,7.93
2022-12-06T23:21:06.975Z,7.53
2022-12-06T23:23:34.569Z,7.60
2022-12-06T23:26:03.359Z,6.80
2022-12-06T23:28:31.200Z,7.15
2022-12-06T23:31:02.833Z,7.53
2022-12-06T23:33:30.287Z,7.50
2022-12-06T23:36:04.366Z,7.38
2022-12-06T23:38:32.139Z,6.95
2022-12-06T23:41:03.068Z,6.85
2022-12-06T23:43:30.514Z,7.05
2022-12-06T23:46:01.038Z,7.18
2022-12-06T23:48:31.926Z,6.80
2022-12-06T23:51:00.621Z,6.53
2022-12-06T23:53:29.465Z,6.20
2022-12-06T23:55:59.616Z,6.32
